createdAt,value
2023-12-23T00:01:37.379Z,95515.41
2023-12-23T00:05:37.631Z,95522.56
2023-12-23T00:09:37.892Z,95552.66
2023-12-23T00:13:40.782Z,95529.25
2023-12-23T00:17:41.230Z,95539.03
2023-12-23T00:21:41.512Z,95513.72
2023-12-23T00:25:41.771Z,95570.94
2023-12-23T00:29:44.783Z,95567.41
2023-12-23T00:33:49.251Z,95591.28
2023-12-23T00:37:49.743Z,95600.19
2023-12-23T00:41:50.052Z,95609.91
2023-12-23T00:45:53.462Z,95616.28
2023-12-23T00:49:53.714Z,95618.97
2023-12-23T00:53:53.872Z,95625.56
2023-12-23T00:57:54.166Z,95613.63
2023-12-23T01:01:56.903Z,95660.31
2023-12-23T01:05:57.273Z,95664.31
2023-12-23T01:09:58.792Z,95637.75
2023-12-23T01:13:59.103Z,95664.31
2023-12-23T01:18:02.012Z,95670.41
2023-12-23T01:22:02.825Z,95694.53
2023-12-23T01:26:03.180Z,95718.69
2023-12-23T01:30:04.970Z,95713.88
2023-12-23T01:34:07.764Z,95742.78
2023-12-23T01:38:08.769Z,95757.97
2023-12-23T01:42:10.326Z,95767.56
2023-12-23T01:46:11.020Z,95783.19
2023-12-23T01:50:15.488Z,95789.00
2023-12-23T01:54:16.118Z,95771.66
2023-12-23T01:58:16.456Z,95810.94
2023-12-23T02:02:17.991Z,95815.72
2023-12-23T02:06:20.982Z,95818.16
2023-12-23T02:10:21.871Z,95788.91
2023-12-23T02:14:32.137Z,95816.78
2023-12-23T02:18:32.306Z,95839.53
2023-12-23T02:22:35.174Z,95842.09
2023-12-23T02:26:40.005Z,95847.97
2023-12-23T02:30:46.205Z,95845.81
2023-12-23T02:34:47.387Z,95843.69
2023-12-23T02:38:50.402Z,95876.28
2023-12-23T02:42:51.190Z,95880.38
2023-12-23T02:46:51.698Z,95874.16
2023-12-23T02:50:52.217Z,95902.78
2023-12-23T02:54:54.983Z,95913.94
2023-12-23T02:58:55.775Z,95905.66
2023-12-23T03:02:58.020Z,95920.25
2023-12-23T03:06:58.174Z,95918.34
2023-12-23T03:11:00.984Z,95922.31
2023-12-23T03:15:01.582Z,95936.72
2023-12-23T03:19:02.378Z,95913.88
2023-12-23T03:23:02.650Z,95950.28
2023-12-23T03:27:05.469Z,95950.19
2023-12-23T03:31:05.692Z,95937.59
2023-12-23T03:35:06.080Z,95945.31
2023-12-23T03:39:08.420Z,95940.63
2023-12-23T03:43:11.258Z,95970.25
2023-12-23T03:47:11.877Z,95953.31
2023-12-23T03:51:12.143Z,95954.56
2023-12-23T03:55:15.215Z,95966.63
2023-12-23T03:59:18.096Z,95958.63
2023-12-23T04:03:19.372Z,95945.53
2023-12-23T04:07:20.025Z,95941.63
2023-12-23T04:11:20.415Z,95953.31
2023-12-23T04:15:23.341Z,95937.00
2023-12-23T04:19:23.578Z,95952.78
2023-12-23T04:23:23.891Z,95951.59
2023-12-23T04:27:24.294Z,95958.88
2023-12-23T04:31:28.272Z,95959.47
2023-12-23T04:35:28.568Z,95968.03
2023-12-23T04:39:29.169Z,95966.84
2023-12-23T04:43:31.622Z,95971.00
2023-12-23T04:47:34.887Z,95982.47
2023-12-23T04:51:35.155Z,95960.69
2023-12-23T04:55:35.534Z,95966.88
2023-12-23T04:59:35.930Z,95964.25
2023-12-23T05:03:38.719Z,95957.63
2023-12-23T05:07:39.153Z,95959.31
2023-12-23T05:11:39.370Z,95915.47
2023-12-23T05:15:39.564Z,95935.88
2023-12-23T05:19:44.567Z,95935.03
2023-12-23T05:23:44.813Z,95936.25
2023-12-23T05:27:45.031Z,95947.44
2023-12-23T05:31:45.231Z,95922.97
2023-12-23T05:35:48.008Z,95925.66
2023-12-23T05:39:49.677Z,95920.31
2023-12-23T05:43:49.892Z,95906.38
2023-12-23T05:47:51.925Z,95921.88
2023-12-23T05:51:56.829Z,95919.53
2023-12-23T05:55:57.113Z,95913.41
2023-12-23T05:59:58.952Z,95914.13
2023-12-23T06:03:59.306Z,95890.34
2023-12-23T06:08:03.521Z,95891.88
2023-12-23T06:12:03.776Z,95880.72
2023-12-23T06:16:09.826Z,95886.75
2023-12-23T06:20:11.726Z,95866.88
2023-12-23T06:24:14.743Z,95881.00
2023-12-23T06:28:15.133Z,95870.81
2023-12-23T06:32:15.452Z,95855.03
2023-12-23T06:36:15.724Z,95863.59
2023-12-23T06:40:18.910Z,95849.03
2023-12-23T06:44:19.115Z,95832.41
2023-12-23T06:48:19.431Z,95814.22
2023-12-23T06:52:19.798Z,95850.34
2023-12-23T06:56:23.996Z,95833.34
2023-12-23T07:00:24.480Z,95842.66
2023-12-23T07:04:24.668Z,95830.72
2023-12-23T07:08:25.713Z,95812.09
2023-12-23T07:12:29.340Z,95829.06
2023-12-23T07:16:29.995Z,95790.09
2023-12-23T07:20:30.237Z,95800.44
2023-12-23T07:24:30.488Z,95797.78
2023-12-23T07:28:34.071Z,95793.53
2023-12-23T07:32:34.404Z,95764.03
2023-12-23T07:36:34.775Z,95781.84
2023-12-23T07:40:36.574Z,95815.84
2023-12-23T07:44:39.369Z,95790.38
2023-12-23T07:48:39.540Z,95794.53
2023-12-23T07:52:40.848Z,95784.72
2023-12-23T07:56:41.010Z,95777.84
2023-12-23T08:00:44.184Z,95796.94
2023-12-23T08:04:44.805Z,95771.22
2023-12-23T08:08:45.073Z,95783.41
2023-12-23T08:12:45.400Z,95790.63
2023-12-23T08:16:48.169Z,95777.88
2023-12-23T08:20:48.441Z,95736.22
2023-12-23T08:24:48.665Z,95766.94
2023-12-23T08:28:48.900Z,95747.09
2023-12-23T08:32:52.359Z,95758.50
2023-12-23T08:36:52.977Z,95755.28
2023-12-23T08:40:53.217Z,95703.50
2023-12-23T08:44:53.734Z,95707.81
2023-12-23T08:48:56.559Z,95726.78
2023-12-23T08:52:56.761Z,95731.66
2023-12-23T08:56:56.971Z,95710.13
2023-12-23T09:00:57.267Z,95747.88
2023-12-23T09:05:00.075Z,95759.00
2023-12-23T09:09:01.359Z,95713.88
2023-12-23T09:13:01.541Z,95758.00
2023-12-23T09:17:01.754Z,95737.22
2023-12-23T09:21:05.162Z,95745.19
2023-12-23T09:25:05.635Z,95747.59
2023-12-23T09:29:06.096Z,95751.00
2023-12-23T09:33:07.296Z,95740.06
2023-12-23T09:37:10.383Z,95737.28
2023-12-23T09:41:10.722Z,95768.28
2023-12-23T09:45:12.150Z,95732.13
2023-12-23T09:49:12.470Z,95764.28
2023-12-23T09:53:17.677Z,95739.28
2023-12-23T09:57:18.792Z,95745.75
2023-12-23T10:01:18.954Z,95742.28
2023-12-23T10:05:22.394Z,95725.06
2023-12-23T10:09:25.757Z,95771.78
2023-12-23T10:13:25.964Z,95754.22
2023-12-23T10:17:26.293Z,95753.66
2023-12-23T10:21:26.533Z,95740.63
2023-12-23T10:25:29.371Z,95731.38
2023-12-23T10:29:35.162Z,95763.81
2023-12-23T10:33:42.413Z,95757.97
2023-12-23T10:37:46.703Z,95731.94
2023-12-23T10:41:55.466Z,95713.25
2023-12-23T10:45:58.523Z,95731.13
2023-12-23T10:50:00.568Z,95681.44
2023-12-23T10:54:04.873Z,95718.53
2023-12-23T10:58:10.800Z,95725.59
2023-12-23T11:02:17.428Z,95705.25
2023-12-23T11:06:19.524Z,95727.03
2023-12-23T11:10:22.373Z,95737.38
2023-12-23T11:14:25.581Z,95721.28
2023-12-23T11:18:26.213Z,95718.09
2023-12-23T11:22:31.867Z,95722.88
2023-12-23T11:26:46.289Z,95710.44
2023-12-23T11:30:54.235Z,95704.34
2023-12-23T11:34:55.467Z,95720.66
2023-12-23T11:38:57.407Z,95710.63
2023-12-23T11:42:59.031Z,95702.69
2023-12-23T11:47:02.513Z,95683.56
2023-12-23T11:51:04.103Z,95700.63
2023-12-23T11:55:04.949Z,95745.22
2023-12-23T11:59:05.555Z,95796.16
2023-12-23T12:03:09.314Z,95753.09
2023-12-23T12:07:09.927Z,95739.78
2023-12-23T12:11:13.449Z,95733.09
2023-12-23T12:15:14.544Z,95751.50
2023-12-23T12:19:17.552Z,95801.47
2023-12-23T12:23:18.528Z,95723.69
2023-12-23T12:27:18.957Z,95702.09
2023-12-23T12:31:19.227Z,95738.25
2023-12-23T12:35:22.884Z,95741.94
2023-12-23T12:39:23.367Z,95762.16
2023-12-23T12:43:25.717Z,95752.97
2023-12-23T12:47:27.666Z,95774.34
2023-12-23T12:51:30.917Z,95754.16
2023-12-23T12:55:31.225Z,95732.81
2023-12-23T12:59:31.968Z,95787.09
2023-12-23T13:03:32.592Z,95769.38
2023-12-23T13:07:35.370Z,95764.53
2023-12-23T13:11:36.420Z,95752.94
2023-12-23T13:15:36.750Z,95762.06
2023-12-23T13:19:37.096Z,95773.22
2023-12-23T13:23:40.111Z,95762.91
2023-12-23T13:27:40.799Z,95807.09
2023-12-23T13:31:41.251Z,95739.34
2023-12-23T13:35:41.687Z,95836.84
2023-12-23T13:39:44.441Z,95791.88
2023-12-23T13:43:44.817Z,95809.44
2023-12-23T13:47:45.281Z,95807.38
2023-12-23T13:51:46.615Z,95808.91
2023-12-23T13:55:51.270Z,95810.44
2023-12-23T13:59:52.404Z,95811.06
2023-12-23T14:03:52.761Z,95837.06
2023-12-23T14:07:53.005Z,95849.25
2023-12-23T14:11:55.852Z,95854.06
2023-12-23T14:15:56.192Z,95847.72
2023-12-23T14:19:56.622Z,95850.88
2023-12-23T14:23:57.243Z,95882.22
2023-12-23T14:28:00.062Z,95858.50
2023-12-23T14:32:00.764Z,95896.78
2023-12-23T14:36:01.512Z,95867.38
2023-12-23T14:40:02.865Z,95898.69
2023-12-23T14:44:06.755Z,95906.69
2023-12-23T14:48:07.636Z,95926.31
2023-12-23T14:52:09.120Z,95923.63
2023-12-23T14:56:10.293Z,95920.47
2023-12-23T15:00:17.041Z,95946.00
2023-12-23T15:04:17.550Z,95933.19
2023-12-23T15:08:18.167Z,95947.28
2023-12-23T15:12:20.686Z,95951.25
2023-12-23T15:16:23.802Z,95929.00
2023-12-23T15:20:24.046Z,95904.53
2023-12-23T15:24:25.052Z,95980.19
2023-12-23T15:28:25.676Z,95927.91
2023-12-23T15:32:28.629Z,95979.16
2023-12-23T15:36:28.863Z,96028.91
2023-12-23T15:40:29.115Z,95972.00
2023-12-23T15:44:31.111Z,96009.50
2023-12-23T15:48:34.062Z,96012.97
2023-12-23T15:52:36.023Z,96022.00
2023-12-23T15:56:40.930Z,96008.97
2023-12-23T16:00:41.225Z,96053.09
2023-12-23T16:04:43.994Z,96050.22
2023-12-23T16:08:44.325Z,96075.34
2023-12-23T16:12:44.781Z,96081.50
2023-12-23T16:16:45.049Z,96061.31
2023-12-23T16:20:48.069Z,96085.72
2023-12-23T16:24:48.503Z,96082.03
2023-12-23T16:28:48.928Z,96078.34
2023-12-23T16:32:50.389Z,96039.47
2023-12-23T16:36:53.522Z,96068.75
2023-12-23T16:40:53.973Z,96077.28
2023-12-23T16:44:54.804Z,96062.88
2023-12-23T16:48:55.428Z,96066.56
2023-12-23T16:52:58.667Z,96113.97
2023-12-23T16:56:59.319Z,96100.16
2023-12-23T17:00:59.782Z,96136.78
2023-12-23T17:05:00.356Z,96088.25
2023-12-23T17:09:03.541Z,96139.16
2023-12-23T17:13:03.885Z,96120.28
2023-12-23T17:17:04.732Z,96129.41
2023-12-23T17:21:05.177Z,96111.94
2023-12-23T17:25:08.857Z,96120.66
2023-12-23T17:29:09.456Z,96083.69
2023-12-23T17:33:14.249Z,96125.41
2023-12-23T17:37:15.043Z,96106.56
2023-12-23T17:41:18.373Z,96137.41
2023-12-23T17:45:18.948Z,96115.00
2023-12-23T17:49:20.338Z,96131.25
2023-12-23T17:53:22.877Z,96134.38
2023-12-23T17:57:28.366Z,96171.44
2023-12-23T18:01:28.862Z,96136.16
2023-12-23T18:05:29.270Z,96156.25
2023-12-23T18:09:29.668Z,96134.38
2023-12-23T18:13:32.586Z,96172.28
2023-12-23T18:17:33.090Z,96151.38
2023-12-23T18:21:33.491Z,96173.34
2023-12-23T18:25:33.946Z,96171.78
2023-12-23T18:29:37.043Z,96173.31
2023-12-23T18:33:37.584Z,96149.91
2023-12-23T18:37:38.329Z,96166.34
2023-12-23T18:41:38.709Z,96182.63
2023-12-23T18:45:41.823Z,96174.47
2023-12-23T18:49:42.899Z,96181.25
2023-12-23T18:53:43.540Z,96194.66
2023-12-23T18:57:44.323Z,96164.41
2023-12-23T19:01:47.326Z,96164.81
2023-12-23T19:05:47.635Z,96185.50
2023-12-23T19:09:47.972Z,96186.16
2023-12-23T19:13:48.230Z,96161.88
2023-12-23T19:17:54.076Z,96189.75
2023-12-23T19:21:55.760Z,96193.75
2023-12-23T19:25:56.795Z,96213.53
2023-12-23T19:29:57.146Z,96203.59
2023-12-23T19:34:01.572Z,96199.59
2023-12-23T19:38:02.592Z,96184.66
2023-12-23T19:42:04.817Z,96190.94
2023-12-23T19:46:05.765Z,96166.03
2023-12-23T19:50:10.637Z,96200.13
2023-12-23T19:54:11.002Z,96220.47
2023-12-23T19:58:11.685Z,96185.81
2023-12-23T20:02:12.251Z,96208.25
2023-12-23T20:06:17.171Z,96226.59
2023-12-23T20:10:17.482Z,96234.91
2023-12-23T20:14:17.891Z,96207.47
2023-12-23T20:18:18.295Z,96221.78
2023-12-23T20:22:24.041Z,96223.53
2023-12-23T20:26:24.949Z,96201.41
2023-12-23T20:30:25.430Z,96232.28
2023-12-23T20:34:26.216Z,96231.09
2023-12-23T20:38:29.622Z,96229.41
2023-12-23T20:42:30.611Z,96214.13
2023-12-23T20:46:31.796Z,96241.34
2023-12-23T20:50:32.404Z,96169.00
2023-12-23T20:54:35.394Z,96223.69
2023-12-23T20:58:35.733Z,96195.84
2023-12-23T21:02:36.242Z,96237.50
2023-12-23T21:06:36.680Z,96236.78
2023-12-23T21:10:39.581Z,96245.00
2023-12-23T21:14:39.789Z,96232.47
2023-12-23T21:18:44.047Z,96262.81
2023-12-23T21:22:45.803Z,96262.41
2023-12-23T21:26:49.049Z,96210.63
2023-12-23T21:30:49.733Z,96226.63
2023-12-23T21:34:50.534Z,96214.44
2023-12-23T21:38:50.757Z,96247.75
2023-12-23T21:42:53.833Z,96205.47
2023-12-23T21:46:56.764Z,96250.69
2023-12-23T21:50:57.429Z,96254.09
2023-12-23T21:54:57.992Z,96254.94
2023-12-23T21:59:00.860Z,96246.97
2023-12-23T22:03:01.410Z,96218.09
2023-12-23T22:07:01.661Z,96275.88
2023-12-23T22:11:01.969Z,96246.94
2023-12-23T22:15:06.726Z,96244.81
2023-12-23T22:19:07.220Z,96238.56
2023-12-23T22:23:08.082Z,96269.00
2023-12-23T22:27:08.968Z,96246.59
2023-12-23T22:31:12.359Z,96243.31
2023-12-23T22:35:13.117Z,96267.34
2023-12-23T22:39:13.504Z,96244.44
2023-12-23T22:43:14.470Z,96236.44
2023-12-23T22:47:17.690Z,96271.56
2023-12-23T22:51:18.414Z,96184.84
2023-12-23T22:55:18.961Z,96230.22
2023-12-23T22:59:19.585Z,96264.09
2023-12-23T23:03:22.578Z,96260.84
2023-12-23T23:07:23.030Z,96246.72
2023-12-23T23:11:23.543Z,96267.69
2023-12-23T23:15:24.448Z,96217.53
2023-12-23T23:19:27.420Z,96256.16
2023-12-23T23:23:28.061Z,96262.81
2023-12-23T23:27:29.068Z,96245.31
2023-12-23T23:31:29.346Z,96274.19
2023-12-23T23:35:32.167Z,96260.44
2023-12-23T23:39:33.745Z,96291.63
2023-12-23T23:43:35.151Z,96288.09
2023-12-23T23:47:35.525Z,96293.47
2023-12-23T23:51:39.852Z,96299.88
2023-12-23T23:55:40.790Z,96318.38
2023-12-23T23:59:41.035Z,96287.03
